Time;durP1;ratioP1;P1;durP2;ratioP2;P2;SDS_P1;SDS_P2;PMS_P1;PMS_P2;Temp;Humidity;BMP_temperature;BMP_pressure;BME280_temperature;BME280_humidity;BME280_pressure;Samples;Min_cycle;Max_cycle;Signal;HPM_P1;HPM_P2
2022/10/19 00:00:00;;;;;;;17.50;11.40;;;;;;;12.44;92.22;100747.95;126869;1279;107438;-74
2022/10/19 00:03:05;;;;;;;15.00;10.30;;;;;;;12.36;92.16;100747.69;126954;1278;108526;-74
2022/10/19 00:06:16;;;;;;;13.30;9.60;;;;;;;12.30;92.05;100750.76;126905;1272;107549;-74
2022/10/19 00:09:21;;;;;;;13.50;9.70;;;;;;;12.25;91.86;100750.82;126861;1271;106501;-75
2022/10/19 00:12:27;;;;;;;14.70;10.70;;;;;;;12.19;92.01;100748.69;126820;1278;107274;-76
2022/10/19 00:15:32;;;;;;;13.70;10.20;;;;;;;12.14;91.78;100752.33;126864;1278;107345;-76
2022/10/19 00:18:38;;;;;;;14.70;10.10;;;;;;;12.07;91.78;100752.14;126879;1286;105622;-74
2022/10/19 00:21:43;;;;;;;13.50;8.70;;;;;;;11.98;91.79;100751.92;126914;1278;107521;-75
2022/10/19 00:24:49;;;;;;;13.00;9.30;;;;;;;11.96;91.94;100748.64;126932;1286;107404;-75
2022/10/19 00:27:54;;;;;;;14.00;9.40;;;;;;;11.97;91.71;100749.16;126837;1279;107225;-75
2022/10/19 00:31:04;;;;;;;14.50;11.30;;;;;;;11.97;91.57;100746.85;126920;1279;105945;-74
2022/10/19 00:34:09;;;;;;;14.00;10.60;;;;;;;11.94;91.50;100746.62;126971;1286;107141;-75
2022/10/19 00:37:15;;;;;;;12.70;8.80;;;;;;;11.89;91.48;100748.73;126840;1284;105605;-75
2022/10/19 00:40:20;;;;;;;12.20;8.30;;;;;;;11.85;91.21;100752.00;126833;1279;107522;-76
2022/10/19 00:43:30;;;;;;;13.40;9.40;;;;;;;11.82;91.37;100750.30;126878;1278;108795;-75
2022/10/19 00:46:37;;;;;;;17.90;9.80;;;;;;;11.80;91.42;100746.23;126901;1279;108571;-75
2022/10/19 00:49:45;;;;;;;14.70;11.80;;;;;;;11.79;91.37;100740.23;126872;1279;107491;-75
2022/10/19 00:52:50;;;;;;;18.70;13.60;;;;;;;11.76;91.21;100735.48;126874;1278;105870;-76
2022/10/19 00:55:58;;;;;;;16.60;9.90;;;;;;;11.71;91.21;100732.27;126917;1278;107242;-75
2022/10/19 00:59:06;;;;;;;11.70;8.20;;;;;;;11.66;91.29;100729.71;126949;1278;107197;-75
2022/10/19 01:02:11;;;;;;;11.60;9.00;;;;;;;11.64;91.10;100727.66;126916;1286;107467;-75
2022/10/19 01:05:18;;;;;;;14.50;9.70;;;;;;;11.61;91.20;100730.73;126902;1278;107980;-75
2022/10/19 01:08:23;;;;;;;16.60;11.70;;;;;;;11.62;91.21;100730.30;126895;1278;106053;-75
2022/10/19 01:11:42;;;;;;;15.10;12.50;;;;;;;11.59;91.27;100728.05;126988;1278;107537;-75
2022/10/19 01:15:01;;;;;;;14.20;9.80;;;;;;;11.55;91.39;100724.40;126908;1279;107578;-75
2022/10/19 01:18:18;;;;;;;12.90;8.10;;;;;;;11.54;91.51;100719.34;126908;1279;107333;-75
2022/10/19 01:21:26;;;;;;;13.90;9.80;;;;;;;11.55;91.60;100715.64;126973;1278;106646;-75
2022/10/19 01:24:54;;;;;;;13.80;10.20;;;;;;;11.60;91.46;100711.58;127024;1285;107502;-75
2022/10/19 01:28:12;;;;;;;16.50;10.00;;;;;;;11.63;91.35;100708.46;127248;1279;105519;-75
2022/10/19 01:31:27;;;;;;;13.90;10.50;;;;;;;11.65;91.23;100705.41;127060;1286;107419;-75
2022/10/19 01:34:39;;;;;;;15.10;9.80;;;;;;;11.66;91.39;100704.89;126870;1285;108494;-75
2022/10/19 01:37:49;;;;;;;12.80;9.00;;;;;;;11.69;91.37;100706.06;126939;1286;106014;-76
2022/10/19 01:41:02;;;;;;;16.80;11.10;;;;;;;11.73;91.43;100694.14;126957;1280;107238;-75
2022/10/19 01:44:13;;;;;;;15.80;11.50;;;;;;;11.78;91.35;100695.05;126915;1286;107342;-74
2022/10/19 01:47:25;;;;;;;16.00;13.10;;;;;;;11.84;91.18;100694.65;126937;1279;108077;-74
2022/10/19 01:50:36;;;;;;;18.60;13.90;;;;;;;11.87;90.96;100703.69;126830;1285;107340;-75
2022/10/19 01:53:47;;;;;;;17.80;10.70;;;;;;;11.85;91.08;100700.27;126893;1278;106730;-74
2022/10/19 01:56:54;;;;;;;13.30;9.70;;;;;;;11.86;91.13;100698.36;126890;1279;105546;-75
2022/10/19 02:00:06;;;;;;;14.50;9.30;;;;;;;11.88;91.07;100696.02;126953;1286;107485;-75
2022/10/19 02:03:17;;;;;;;14.00;10.00;;;;;;;11.94;91.11;100696.55;127157;1278;107529;-75
2022/10/19 02:06:23;;;;;;;17.60;11.90;;;;;;;11.96;90.83;100697.20;127210;1278;107411;-74
2022/10/19 02:09:29;;;;;;;14.40;11.00;;;;;;;11.98;90.88;100697.89;127108;1286;107222;-74
2022/10/19 02:12:36;;;;;;;15.20;9.90;;;;;;;11.98;90.76;100692.23;127131;1285;107487;-74
2022/10/19 02:15:47;;;;;;;12.30;8.60;;;;;;;11.96;90.70;100686.40;126941;1278;107134;-74
2022/10/19 02:18:54;;;;;;;16.60;10.00;;;;;;;11.92;90.74;100681.23;126867;1279;107957;-74
2022/10/19 02:22:00;;;;;;;12.20;9.00;;;;;;;11.97;90.75;100675.74;127008;1286;106810;-75
2022/10/19 02:25:08;;;;;;;14.20;9.60;;;;;;;12.02;90.90;100672.06;126955;1286;107515;-73
2022/10/19 02:28:13;;;;;;;15.20;10.20;;;;;;;12.05;90.62;100665.19;126877;1279;107378;-73
2022/10/19 02:31:19;;;;;;;15.10;9.50;;;;;;;12.05;90.64;100663.33;126859;1293;107636;-78
2022/10/19 02:34:24;;;;;;;11.60;7.80;;;;;;;12.07;90.60;100666.52;126895;1278;107371;-76
2022/10/19 02:37:30;;;;;;;13.00;8.80;;;;;;;12.08;90.50;100671.27;126902;1284;106752;-75
2022/10/19 02:40:41;;;;;;;13.20;9.10;;;;;;;12.10;90.49;100663.60;126925;1279;107647;-75
2022/10/19 02:43:52;;;;;;;13.70;9.70;;;;;;;12.11;90.36;100663.61;126848;1280;107613;-74
2022/10/19 02:47:05;;;;;;;13.20;9.90;;;;;;;12.09;90.38;100656.77;126907;1288;107482;-74
2022/10/19 02:50:12;;;;;;;10.60;8.30;;;;;;;12.06;90.42;100652.73;126868;1278;106882;-74
2022/10/19 02:53:17;;;;;;;14.40;8.30;;;;;;;12.02;90.21;100651.05;126946;1278;106162;-74
2022/10/19 02:56:23;;;;;;;12.30;8.70;;;;;;;12.00;90.30;100655.52;126845;1280;107515;-74
2022/10/19 02:59:28;;;;;;;13.00;8.90;;;;;;;11.99;90.03;100660.02;126904;1278;107504;-74
2022/10/19 03:02:34;;;;;;;11.70;8.20;;;;;;;11.96;90.11;100663.14;126918;1286;107364;-77
2022/10/19 03:05:40;;;;;;;14.60;9.70;;;;;;;11.88;90.01;100659.98;126996;1280;107483;-78
2022/10/19 03:08:46;;;;;;;14.50;8.70;;;;;;;11.79;89.92;100664.45;127036;1286;107559;-77
2022/10/19 03:11:51;;;;;;;11.60;7.30;;;;;;;11.72;89.97;100658.75;127120;1284;107493;-76
2022/10/19 03:14:56;;;;;;;13.80;7.70;;;;;;;11.67;89.92;100657.42;127104;1286;107540;-77
2022/10/19 03:18:02;;;;;;;11.60;7.70;;;;;;;11.67;89.98;100659.20;126885;1286;107418;-76
2022/10/19 03:21:10;;;;;;;11.20;7.20;;;;;;;11.65;89.84;100653.78;126855;1278;107303;-78
2022/10/19 03:24:16;;;;;;;13.70;8.90;;;;;;;11.58;89.72;100651.02;126947;1279;107592;-76
2022/10/19 03:27:21;;;;;;;11.50;7.60;;;;;;;11.53;89.66;100646.20;127153;1278;107675;-77
2022/10/19 03:30:26;;;;;;;9.00;6.10;;;;;;;11.48;89.83;100651.53;126874;1287;108694;-77
2022/10/19 03:33:32;;;;;;;8.50;6.50;;;;;;;11.40;89.54;100650.77;126858;1278;107497;-76
2022/10/19 03:36:39;;;;;;;13.60;6.70;;;;;;;11.36;89.57;100649.95;126911;1279;107620;-76
2022/10/19 03:39:44;;;;;;;10.50;6.80;;;;;;;11.33;89.71;100644.65;126910;1278;107528;-77
2022/10/19 03:42:50;;;;;;;9.20;6.90;;;;;;;11.30;89.45;100643.23;126901;1286;107399;-78
2022/10/19 03:45:55;;;;;;;11.30;7.20;;;;;;;11.24;89.15;100638.51;126892;1279;107492;-76
2022/10/19 03:49:01;;;;;;;9.80;6.30;;;;;;;11.18;89.52;100638.48;126897;1279;107382;-76
2022/10/19 03:52:08;;;;;;;11.20;5.20;;;;;;;11.20;89.28;100636.50;127024;1278;107165;-76
2022/10/19 03:55:14;;;;;;;10.90;6.40;;;;;;;11.23;89.39;100637.27;126837;1284;107308;-76
2022/10/19 03:58:20;;;;;;;7.60;5.50;;;;;;;11.29;89.41;100644.39;126976;1278;107286;-77
2022/10/19 04:01:27;;;;;;;8.00;5.60;;;;;;;11.32;89.00;100642.16;126902;1278;107528;-78
2022/10/19 04:04:33;;;;;;;9.00;6.00;;;;;;;11.30;88.73;100642.16;126836;1279;107183;-76
2022/10/19 04:07:38;;;;;;;8.60;5.40;;;;;;;11.28;89.00;100650.87;126888;1280;107359;-77
2022/10/19 04:10:43;;;;;;;7.30;4.80;;;;;;;11.25;88.81;100647.29;126784;1280;107430;-77
2022/10/19 04:13:51;;;;;;;10.70;4.90;;;;;;;11.23;88.50;100641.84;126876;1285;107467;-72
2022/10/19 04:16:56;;;;;;;12.30;5.60;;;;;;;11.28;88.99;100635.29;126864;1285;107555;-77
2022/10/19 04:20:01;;;;;;;12.80;6.30;;;;;;;11.30;88.84;100632.01;126930;1279;107627;-77
2022/10/19 04:23:07;;;;;;;10.60;6.70;;;;;;;11.31;88.79;100633.80;126900;1279;107357;-77
2022/10/19 04:26:12;;;;;;;11.20;5.60;;;;;;;11.30;88.82;100634.02;126855;1278;107264;-76
2022/10/19 04:29:19;;;;;;;7.60;5.10;;;;;;;11.29;89.26;100632.13;126889;1286;107361;-76
2022/10/19 04:32:24;;;;;;;12.20;7.30;;;;;;;11.34;89.17;100631.23;126937;1286;107578;-76
2022/10/19 04:35:30;;;;;;;9.70;5.80;;;;;;;11.41;89.21;100626.48;126825;1278;107534;-76
2022/10/19 04:38:36;;;;;;;9.30;5.90;;;;;;;11.44;88.92;100623.06;126911;1286;107498;-77
2022/10/19 04:41:41;;;;;;;9.80;7.00;;;;;;;11.42;88.99;100616.59;126935;1279;107404;-76
2022/10/19 04:44:47;;;;;;;10.30;6.20;;;;;;;11.40;88.62;100609.99;126911;1278;107506;-76
2022/10/19 04:47:55;;;;;;;9.20;5.60;;;;;;;11.38;88.90;100607.14;126865;1279;107376;-76
2022/10/19 04:51:00;;;;;;;9.50;6.00;;;;;;;11.41;89.09;100604.56;126985;1278;107555;-77
2022/10/19 04:54:06;;;;;;;12.10;6.10;;;;;;;11.44;88.83;100598.97;126927;1278;107501;-77
2022/10/19 04:57:11;;;;;;;8.70;6.20;;;;;;;11.46;88.67;100598.20;126997;1280;107397;-77
2022/10/19 05:00:17;;;;;;;9.50;6.20;;;;;;;11.48;88.91;100603.42;126914;1284;107570;-77
2022/10/19 05:03:23;;;;;;;11.10;6.40;;;;;;;11.47;88.68;100596.05;126838;1285;108033;-76
2022/10/19 05:06:29;;;;;;;10.20;6.20;;;;;;;11.42;88.48;100594.34;126808;1280;107511;-76
2022/10/19 05:09:35;;;;;;;9.50;6.00;;;;;;;11.38;88.49;100603.42;126970;1278;107262;-77
2022/10/19 05:12:40;;;;;;;10.50;7.20;;;;;;;11.37;88.67;100600.81;126877;1284;106478;-77
2022/10/19 05:15:57;;;;;;;9.70;7.10;;;;;;;11.43;88.68;100593.58;126832;1279;107476;-77
2022/10/19 05:19:02;;;;;;;12.50;7.40;;;;;;;11.46;88.74;100589.48;127237;1276;106633;-76
2022/10/19 05:22:08;;;;;;;13.20;8.30;;;;;;;11.49;88.60;100595.48;127169;1279;107537;-76
2022/10/19 05:25:13;;;;;;;10.50;6.50;;;;;;;11.47;88.34;100594.95;126894;1285;107150;-78
2022/10/19 05:28:18;;;;;;;10.10;6.60;;;;;;;11.45;88.52;100595.99;126916;1278;109130;-78
2022/10/19 05:31:26;;;;;;;11.90;7.30;;;;;;;11.47;88.73;100599.38;126968;1284;107550;-82
2022/10/19 05:34:31;;;;;;;12.10;8.10;;;;;;;11.48;88.56;100607.47;127057;1294;107401;-79
2022/10/19 05:37:37;;;;;;;12.20;7.50;;;;;;;11.43;88.46;100606.48;126909;1278;107513;-79
2022/10/19 05:40:47;;;;;;;13.00;7.60;;;;;;;11.45;88.71;100600.52;127058;1284;108290;-79
2022/10/19 05:43:56;;;;;;;11.30;6.90;;;;;;;11.45;88.73;100599.41;127200;1278;107273;-79
2022/10/19 05:47:02;;;;;;;11.00;6.50;;;;;;;11.46;88.80;100597.92;127098;1284;107718;-78
2022/10/19 05:50:08;;;;;;;12.20;7.20;;;;;;;11.50;88.80;100596.09;126975;1284;106906;-78
2022/10/19 05:53:13;;;;;;;11.10;7.10;;;;;;;11.56;88.91;100598.98;128115;1282;107291;-79
2022/10/19 05:56:21;;;;;;;13.30;8.10;;;;;;;11.62;88.73;100597.87;128194;1285;107695;-80
2022/10/19 05:59:27;;;;;;;12.80;7.30;;;;;;;11.64;88.54;100604.12;128383;1284;105400;-79
2022/10/19 06:02:32;;;;;;;11.70;6.70;;;;;;;11.63;88.49;100601.91;126878;1286;107521;-73
2022/10/19 06:05:38;;;;;;;10.50;6.40;;;;;;;11.60;88.49;100603.98;126824;1286;107615;-71
2022/10/19 06:08:45;;;;;;;10.60;6.40;;;;;;;11.65;88.57;100604.58;126829;1299;107406;-71
2022/10/19 06:11:50;;;;;;;11.40;6.70;;;;;;;11.73;88.42;100607.46;126880;1282;108339;-72
2022/10/19 06:14:55;;;;;;;11.70;7.90;;;;;;;11.76;88.22;100615.41;127200;1279;107529;-70
2022/10/19 06:18:01;;;;;;;10.50;7.20;;;;;;;11.74;88.32;100609.91;127391;1279;106480;-71
2022/10/19 06:21:08;;;;;;;10.80;6.80;;;;;;;11.71;88.33;100608.44;126920;1286;107500;-73
2022/10/19 06:24:14;;;;;;;12.50;6.60;;;;;;;11.72;88.14;100611.33;126872;1280;107423;-70
2022/10/19 06:27:19;;;;;;;11.50;6.30;;;;;;;11.70;88.26;100614.25;126868;1279;107615;-70
2022/10/19 06:30:25;;;;;;;11.80;6.80;;;;;;;11.71;88.30;100612.52;127060;1278;108007;-70
2022/10/19 06:33:31;;;;;;;11.30;6.90;;;;;;;11.67;87.71;100614.83;126706;1286;107339;-70
2022/10/19 06:36:36;;;;;;;12.00;8.00;;;;;;;11.63;88.04;100611.50;126875;1278;108109;-70
2022/10/19 06:39:41;;;;;;;9.20;6.60;;;;;;;11.56;87.93;100617.19;126756;1292;107190;-69
2022/10/19 06:42:47;;;;;;;12.00;7.10;;;;;;;11.56;88.25;100622.46;126869;1278;110320;-69
2022/10/19 06:45:52;;;;;;;10.40;6.80;;;;;;;11.62;87.93;100629.61;126761;1285;108077;-71
2022/10/19 06:48:59;;;;;;;10.60;7.10;;;;;;;11.65;88.06;100626.07;127136;1279;107497;-72
2022/10/19 06:52:06;;;;;;;11.30;7.30;;;;;;;11.63;87.98;100626.84;127372;1285;107641;-70
2022/10/19 06:55:12;;;;;;;11.10;6.50;;;;;;;11.62;88.25;100631.04;127066;1285;107330;-71
2022/10/19 06:58:17;;;;;;;11.90;6.20;;;;;;;11.68;88.40;100631.02;126882;1292;107508;-70
2022/10/19 07:01:23;;;;;;;12.90;7.20;;;;;;;11.82;88.18;100629.08;126972;1277;107086;-70
2022/10/19 07:04:29;;;;;;;12.30;6.50;;;;;;;11.87;87.51;100631.27;126998;1281;107301;-72
2022/10/19 07:07:34;;;;;;;9.40;6.90;;;;;;;11.94;87.73;100627.86;126950;1291;107389;-71
2022/10/19 07:10:40;;;;;;;10.50;6.90;;;;;;;12.05;87.13;100633.23;126861;1278;107385;-71
2022/10/19 07:13:45;;;;;;;11.00;6.20;;;;;;;12.05;87.23;100635.57;126863;1296;107475;-71
2022/10/19 07:16:52;;;;;;;7.60;5.30;;;;;;;12.09;87.15;100636.79;126831;1292;105502;-70
2022/10/19 07:19:57;;;;;;;8.50;5.50;;;;;;;12.11;86.69;100635.83;126893;1290;107468;-72
2022/10/19 07:23:03;;;;;;;8.70;5.70;;;;;;;12.12;86.27;100640.35;126960;1286;107562;-71
2022/10/19 07:26:11;;;;;;;8.80;5.90;;;;;;;12.14;85.88;100634.14;126910;1279;107135;-74
2022/10/19 07:29:16;;;;;;;10.10;5.70;;;;;;;12.12;86.30;100633.42;126936;1292;107281;-71
2022/10/19 07:32:21;;;;;;;10.30;5.00;;;;;;;12.13;85.97;100642.02;126904;1278;107492;-71
2022/10/19 07:35:27;;;;;;;10.00;5.80;;;;;;;12.14;86.09;100648.40;126896;1280;107518;-70
2022/10/19 07:38:33;;;;;;;7.40;5.10;;;;;;;12.03;85.48;100657.73;126943;1285;107454;-71
2022/10/19 07:41:38;;;;;;;8.80;5.40;;;;;;;11.94;85.58;100656.63;126883;1285;107539;-71
2022/10/19 07:44:44;;;;;;;11.40;5.40;;;;;;;11.89;85.76;100648.50;126904;1278;108058;-77
2022/10/19 07:47:49;;;;;;;10.40;5.40;;;;;;;11.96;86.32;100646.77;127219;1292;107393;-70
2022/10/19 07:50:54;;;;;;;10.80;5.10;;;;;;;12.01;85.92;100650.08;127226;1285;107855;-70
2022/10/19 07:54:00;;;;;;;7.90;5.10;;;;;;;12.08;85.75;100649.33;127130;1278;108227;-69
2022/10/19 07:57:06;;;;;;;9.50;5.50;;;;;;;12.14;85.42;100647.60;126951;1278;108015;-70
2022/10/19 08:00:14;;;;;;;8.40;5.10;;;;;;;12.20;85.27;100648.91;126830;1278;108693;-73
2022/10/19 08:03:19;;;;;;;9.10;5.20;;;;;;;12.24;84.98;100648.09;126800;1289;107386;-70
2022/10/19 08:06:24;;;;;;;10.20;5.00;;;;;;;12.27;85.14;100648.92;126841;1286;107790;-72
2022/10/19 08:09:30;;;;;;;11.90;4.60;;;;;;;12.23;84.46;100650.65;126849;1299;107386;-71
2022/10/19 08:12:38;;;;;;;7.00;4.70;;;;;;;12.17;84.80;100649.71;126946;1278;107431;-72
2022/10/19 08:15:43;;;;;;;6.50;4.10;;;;;;;12.20;85.03;100647.78;126931;1285;107497;-71
2022/10/19 08:18:48;;;;;;;6.40;4.60;;;;;;;12.20;84.56;100648.38;126888;1278;107321;-70
2022/10/19 08:21:54;;;;;;;6.60;4.00;;;;;;;12.13;84.70;100649.32;126733;1285;107526;-71
2022/10/19 08:24:59;;;;;;;9.20;4.20;;;;;;;12.18;84.94;100640.33;126991;1285;107522;-72
2022/10/19 08:28:04;;;;;;;6.50;3.70;;;;;;;12.21;83.95;100642.87;127063;1295;107419;-72
2022/10/19 08:31:15;;;;;;;7.30;4.30;;;;;;;12.16;84.17;100644.20;126879;1278;107519;-73
2022/10/19 08:34:20;;;;;;;8.60;3.40;;;;;;;12.26;85.01;100635.45;126931;1279;107555;-72
2022/10/19 08:37:26;;;;;;;6.70;3.50;;;;;;;12.38;84.53;100636.71;126863;1286;107474;-71
2022/10/19 08:40:32;;;;;;;6.30;3.50;;;;;;;12.31;83.34;100636.19;126849;1287;107534;-71
2022/10/19 08:43:46;;;;;;;5.20;3.20;;;;;;;12.23;84.10;100636.94;126629;1278;107565;-73
2022/10/19 08:47:01;;;;;;;4.90;2.90;;;;;;;12.22;84.43;100636.02;126927;1280;106513;-73
2022/10/19 08:50:18;;;;;;;7.80;3.30;;;;;;;12.20;84.42;100630.29;126963;1282;107309;-73
2022/10/19 08:53:39;;;;;;;7.20;3.30;;;;;;;12.20;84.67;100633.20;127258;1279;107521;-72
2022/10/19 08:56:53;;;;;;;5.80;2.60;;;;;;;12.21;84.02;100635.61;126956;1286;107548;-74
2022/10/19 09:00:03;;;;;;;5.90;2.50;;;;;;;12.23;84.17;100635.60;126813;1296;108051;-71
2022/10/19 09:03:19;;;;;;;4.60;2.50;;;;;;;12.35;84.41;100633.92;126992;1285;107394;-70
2022/10/19 09:06:32;;;;;;;6.00;2.70;;;;;;;12.45;83.20;100638.29;126927;1280;107374;-72
2022/10/19 09:09:42;;;;;;;5.60;2.70;;;;;;;12.42;83.66;100644.02;126817;1294;107518;-71
2022/10/19 09:12:51;;;;;;;7.00;2.80;;;;;;;12.39;83.65;100656.73;126850;1286;107318;-72
2022/10/19 09:15:57;;;;;;;5.80;3.60;;;;;;;12.29;83.67;100656.32;126941;1285;106642;-71
2022/10/19 09:19:02;;;;;;;6.10;3.50;;;;;;;12.15;83.86;100662.18;126935;1285;107588;-71
2022/10/19 09:22:16;;;;;;;16.20;9.60;;;;;;;12.21;84.12;100667.71;126871;1279;107456;-71
2022/10/19 09:25:25;;;;;;;7.00;4.10;;;;;;;12.31;83.87;100663.80;126811;1294;105571;-73
2022/10/19 09:28:45;;;;;;;9.00;6.70;;;;;;;12.34;83.71;100662.73;126916;1286;107338;-72
2022/10/19 09:31:55;;;;;;;28.10;13.50;;;;;;;12.31;83.90;100661.82;126879;1278;107530;-71
2022/10/19 09:35:03;;;;;;;23.20;8.20;;;;;;;12.24;83.81;100659.68;126972;1285;107519;-71
2022/10/19 09:38:12;;;;;;;16.30;10.70;;;;;;;12.16;84.05;100661.15;126989;1279;108037;-71
2022/10/19 09:41:21;;;;;;;13.00;5.60;;;;;;;12.17;84.21;100663.40;127262;1278;107508;-71
2022/10/19 09:44:27;;;;;;;18.70;5.90;;;;;;;12.23;84.15;100667.16;129190;1286;107560;-71
2022/10/19 09:47:36;;;;;;;16.70;5.70;;;;;;;12.17;84.21;100672.16;127765;1294;107353;-71
2022/10/19 09:50:44;;;;;;;6.70;3.10;;;;;;;12.16;84.20;100674.20;126930;1284;107635;-75
2022/10/19 09:53:53;;;;;;;5.80;2.90;;;;;;;12.29;84.27;100676.65;126982;1285;107487;-74
2022/10/19 09:56:58;;;;;;;10.60;4.10;;;;;;;12.39;83.64;100678.14;126957;1280;107475;-71
2022/10/19 10:00:05;;;;;;;8.00;2.20;;;;;;;12.53;82.96;100675.51;127038;1286;107508;-72
2022/10/19 10:03:25;;;;;;;4.50;2.10;;;;;;;12.60;82.52;100677.48;127054;1284;107985;-72
2022/10/19 10:06:31;;;;;;;12.40;3.60;;;;;;;12.78;83.05;100677.80;126970;1279;107969;-72
2022/10/19 10:09:42;;;;;;;9.00;3.30;;;;;;;12.99;82.23;100680.84;126941;1276;106523;-71
2022/10/19 10:12:49;;;;;;;6.60;3.40;;;;;;;13.09;81.14;100676.98;127093;1279;105777;-71
2022/10/19 10:16:00;;;;;;;6.70;2.50;;;;;;;13.23;81.36;100676.59;127110;1286;106699;-71
2022/10/19 10:19:08;;;;;;;6.40;2.80;;;;;;;13.33;80.65;100676.80;126921;1286;107135;-73
2022/10/19 10:22:26;;;;;;;6.90;3.00;;;;;;;13.47;80.21;100677.30;126931;1272;106148;-71
2022/10/19 10:25:36;;;;;;;4.50;2.50;;;;;;;13.51;79.37;100676.63;126913;1279;108682;-72
2022/10/19 10:28:48;;;;;;;4.60;2.30;;;;;;;13.54;80.40;100674.91;127127;1278;107261;-71
2022/10/19 10:31:58;;;;;;;3.40;2.40;;;;;;;13.74;79.86;100670.52;127042;1278;107512;-72
2022/10/19 10:35:06;;;;;;;2.30;1.70;;;;;;;13.92;78.40;100677.90;126958;1286;106816;-72
2022/10/19 10:38:17;;;;;;;4.30;2.40;;;;;;;13.81;77.18;100678.95;126623;1279;448162;-72
2022/10/19 10:41:23;;;;;;;5.00;2.30;;;;;;;13.71;78.08;100676.16;127067;1286;106318;-71
2022/10/19 10:44:32;;;;;;;2.80;1.80;;;;;;;13.77;77.92;100683.05;127101;1286;107653;-72
2022/10/19 10:47:46;;;;;;;3.20;2.20;;;;;;;13.63;78.20;100671.86;126943;1286;107535;-71
2022/10/19 10:50:52;;;;;;;3.60;2.00;;;;;;;13.69;78.49;100679.42;126728;1279;107553;-72
2022/10/19 10:54:09;;;;;;;3.00;1.90;;;;;;;13.80;78.08;100684.20;126937;1286;107205;-73
2022/10/19 10:57:18;;;;;;;2.40;1.00;;;;;;;13.73;77.58;100701.19;127378;1279;107602;-73
2022/10/19 11:00:24;;;;;;;1.50;0.80;;;;;;;13.46;76.20;100708.11;127371;1278;107269;-73
2022/10/19 11:03:32;;;;;;;1.50;0.80;;;;;;;13.15;77.58;100712.01;127162;1278;107369;-72
2022/10/19 11:06:44;;;;;;;2.80;1.00;;;;;;;12.67;80.94;100730.20;127108;1286;107522;-72
2022/10/19 11:09:53;;;;;;;1.60;1.10;;;;;;;11.81;83.00;100737.31;126809;1289;105549;-73
2022/10/19 11:13:05;;;;;;;3.30;0.70;;;;;;;11.17;84.74;100741.50;126907;1278;107376;-71
2022/10/19 11:16:16;;;;;;;1.90;0.80;;;;;;;10.92;85.04;100733.52;127196;1278;106613;-71
2022/10/19 11:19:25;;;;;;;1.50;0.70;;;;;;;10.87;85.85;100735.46;127030;1279;107471;-73
2022/10/19 11:22:35;;;;;;;2.00;0.70;;;;;;;10.73;86.69;100737.82;126981;1278;107506;-71
2022/10/19 11:25:50;;;;;;;2.00;0.90;;;;;;;10.68;86.21;100729.50;127060;1285;107250;-71
2022/10/19 11:29:09;;;;;;;2.50;1.00;;;;;;;10.77;86.07;100737.82;126963;1272;105453;-71
2022/10/19 11:32:27;;;;;;;3.70;2.20;;;;;;;10.77;85.16;100729.95;126967;1282;107527;-72
2022/10/19 11:35:51;;;;;;;2.90;1.80;;;;;;;10.78;84.03;100734.83;127006;1278;107391;-71
2022/10/19 11:39:13;;;;;;;2.00;1.40;;;;;;;10.83;84.20;100731.55;127015;1296;107202;-72
2022/10/19 11:42:25;;;;;;;2.50;1.30;;;;;;;10.93;84.48;100725.61;127143;1279;108284;-72
2022/10/19 11:45:45;;;;;;;2.70;1.80;;;;;;;10.92;84.00;100731.36;126996;1279;107557;-73
2022/10/19 11:49:03;;;;;;;3.50;2.50;;;;;;;10.87;83.85;100735.47;127081;1286;106892;-72
2022/10/19 11:52:16;;;;;;;3.60;2.80;;;;;;;10.94;84.30;100736.92;127161;1284;107388;-76
2022/10/19 11:55:33;;;;;;;3.30;2.20;;;;;;;11.14;83.94;100729.70;126850;1279;107567;-76
2022/10/19 11:58:47;;;;;;;4.10;3.10;;;;;;;11.51;84.07;100731.37;126799;1278;107549;-73
2022/10/19 12:02:04;;;;;;;6.20;3.90;;;;;;;11.63;83.33;100729.67;126984;1284;107507;-73
2022/10/19 12:05:15;;;;;;;4.60;2.90;;;;;;;11.66;83.22;100733.69;126912;1279;106391;-74
2022/10/19 12:08:37;;;;;;;3.50;2.40;;;;;;;11.69;82.59;100736.40;126904;1279;107289;-73
2022/10/19 12:11:58;;;;;;;4.00;2.30;;;;;;;11.71;82.73;100727.27;126862;1271;108062;-72
2022/10/19 12:15:17;;;;;;;2.90;2.10;;;;;;;11.71;82.60;100729.02;126971;1280;107543;-75
2022/10/19 12:18:30;;;;;;;3.10;1.90;;;;;;;11.67;82.47;100729.23;126988;1278;106721;-73
2022/10/19 12:21:39;;;;;;;9.20;5.60;;;;;;;11.57;82.35;100730.92;126922;1278;107343;-72
2022/10/19 12:24:45;;;;;;;6.60;3.40;;;;;;;11.63;82.79;100731.59;126907;1279;106440;-73
2022/10/19 12:27:51;;;;;;;6.10;4.60;;;;;;;11.80;83.11;100729.23;126891;1295;107333;-73
2022/10/19 12:30:58;;;;;;;8.10;6.00;;;;;;;12.02;82.75;100728.02;126858;1279;108310;-72
2022/10/19 12:34:10;;;;;;;4.60;3.60;;;;;;;12.21;82.58;100724.97;126933;1290;107299;-73
2022/10/19 12:37:25;;;;;;;4.50;2.90;;;;;;;12.44;81.94;100723.71;126913;1279;107409;-72
2022/10/19 12:40:38;;;;;;;3.80;3.20;;;;;;;12.56;81.56;100717.13;126919;1285;107495;-72
2022/10/19 12:43:56;;;;;;;3.40;2.20;;;;;;;12.53;78.36;100726.36;126915;1279;105573;-74
2022/10/19 12:47:11;;;;;;;2.40;2.00;;;;;;;12.34;76.12;100730.35;126898;1286;107345;-73
2022/10/19 12:50:36;;;;;;;2.50;2.00;;;;;;;12.23;76.22;100735.46;126992;1286;107117;-78
2022/10/19 12:53:46;;;;;;;3.70;2.10;;;;;;;12.18;77.05;100735.38;127028;1291;107921;-72
2022/10/19 12:56:54;;;;;;;3.50;2.60;;;;;;;12.18;77.23;100738.76;126899;1294;107416;-72
2022/10/19 13:00:18;;;;;;;3.10;2.70;;;;;;;12.15;75.70;100741.36;126901;1293;107280;-72
2022/10/19 13:03:27;;;;;;;3.00;2.40;;;;;;;12.15;76.18;100739.20;126892;1287;107410;-72
2022/10/19 13:06:36;;;;;;;6.00;2.90;;;;;;;12.12;76.32;100739.54;126933;1299;107353;-72
2022/10/19 13:09:44;;;;;;;4.90;3.30;;;;;;;12.04;76.41;100737.61;126898;1294;107319;-72
2022/10/19 13:12:50;;;;;;;3.10;2.80;;;;;;;11.96;76.41;100737.04;126870;1286;107435;-72
2022/10/19 13:15:56;;;;;;;4.50;3.40;;;;;;;11.88;76.12;100740.27;126852;1286;107274;-72
2022/10/19 13:19:18;;;;;;;5.70;4.40;;;;;;;11.86;76.61;100737.58;126819;1294;108045;-74
2022/10/19 13:22:28;;;;;;;3.40;2.40;;;;;;;11.94;76.25;100737.59;126844;1288;106657;-72
2022/10/19 13:25:35;;;;;;;3.50;3.00;;;;;;;12.07;76.35;100735.44;126834;1294;107491;-72
2022/10/19 13:28:53;;;;;;;3.10;2.00;;;;;;;12.13;76.66;100739.58;126927;1295;107453;-73
2022/10/19 13:32:35;;;;;;;7.70;5.10;;;;;;;12.21;75.86;100736.21;126861;1296;107537;-73
2022/10/19 13:35:42;;;;;;;4.50;2.10;;;;;;;12.18;75.43;100737.55;127164;1294;107502;-74
2022/10/19 13:39:02;;;;;;;5.10;2.50;;;;;;;12.10;75.55;100741.52;126959;1295;107543;-72
2022/10/19 13:42:25;;;;;;;3.00;1.50;;;;;;;12.08;76.34;100743.70;126888;1294;107458;-73
2022/10/19 13:45:31;;;;;;;2.00;1.30;;;;;;;12.04;75.90;100750.30;126817;1295;107311;-73
2022/10/19 13:48:54;;;;;;;2.90;1.10;;;;;;;11.96;74.90;100747.34;126822;1295;107429;-73
2022/10/19 13:52:29;;;;;;;2.40;1.00;;;;;;;11.84;73.64;100751.92;127203;1286;108110;-72
2022/10/19 13:55:52;;;;;;;2.50;1.30;;;;;;;11.73;73.98;100760.08;127455;1278;107645;-72
2022/10/19 13:59:21;;;;;;;2.20;1.60;;;;;;;11.63;73.84;100756.27;126922;1278;107453;-73
2022/10/19 14:02:54;;;;;;;3.50;1.70;;;;;;;11.58;73.97;100759.09;126959;1275;107421;-74
2022/10/19 14:06:13;;;;;;;2.20;1.60;;;;;;;11.70;74.16;100761.75;126890;1281;107535;-73
2022/10/19 14:09:50;;;;;;;2.70;1.50;;;;;;;11.92;73.62;100765.44;126885;1286;106229;-72
2022/10/19 14:12:57;;;;;;;5.60;2.10;;;;;;;12.02;73.18;100773.49;126907;1272;106202;-73